Time;durP1;ratioP1;P1;durP2;ratioP2;P2;SDS_P1;SDS_P2;PMS_P1;PMS_P2;Temp;Humidity;BMP_temperature;BMP_pressure;BME280_temperature;BME280_humidity;BME280_pressure;Samples;Min_cycle;Max_cycle;Signal;HPM_P1;HPM_P2
2022/12/12 00:00:21;;;;;;;2.83;2.63;;;;;;;-2.78;100.00;100405.47;5032813;28;20041;-76
2022/12/12 00:02:47;;;;;;;0.65;0.65;;;;;;;-2.77;100.00;100401.03;5032490;28;20377;-75
2022/12/12 00:05:15;;;;;;;1.88;1.30;;;;;;;-2.78;100.00;100405.47;5049633;28;20043;-73
2022/12/12 00:07:41;;;;;;;0.70;0.70;;;;;;;-2.75;100.00;100412.28;5016147;28;20048;-74
2022/12/12 00:10:07;;;;;;;2.03;1.92;;;;;;;-2.71;100.00;100412.00;5016030;28;20517;-75
2022/12/12 00:12:33;;;;;;;0.50;0.50;;;;;;;-2.75;100.00;100396.50;5048999;28;20364;-75
2022/12/12 00:14:58;;;;;;;1.25;1.15;;;;;;;-2.72;100.00;100415.56;4999976;28;20095;-76
2022/12/12 00:17:24;;;;;;;1.42;1.13;;;;;;;-2.79;100.00;100406.38;5032783;28;20033;-76
2022/12/12 00:19:50;;;;;;;1.30;0.82;;;;;;;-2.82;100.00;100401.31;5016309;28;20064;-75
2022/12/12 00:22:15;;;;;;;1.13;1.13;;;;;;;-2.87;100.00;100400.78;4999946;28;20476;-75
2022/12/12 00:24:41;;;;;;;0.68;0.68;;;;;;;-2.91;100.00;100400.13;5016327;28;20036;-76
2022/12/12 00:27:07;;;;;;;0.93;0.93;;;;;;;-2.96;100.00;100398.75;5016240;28;20061;-74
2022/12/12 00:29:32;;;;;;;0.50;0.50;;;;;;;-3.12;100.00;100391.00;5016034;28;20112;-74
2022/12/12 00:31:58;;;;;;;1.70;1.60;;;;;;;-3.10;100.00;100399.59;5015550;28;20391;-75
2022/12/12 00:34:23;;;;;;;0.52;0.52;;;;;;;-3.11;100.00;100392.66;4999546;28;20522;-74
2022/12/12 00:36:50;;;;;;;1.48;1.42;;;;;;;-3.06;100.00;100406.38;5032611;28;20517;-75
2022/12/12 00:39:17;;;;;;;0.88;0.88;;;;;;;-3.03;100.00;100406.16;5032405;28;20068;-75
2022/12/12 00:41:42;;;;;;;1.83;1.73;;;;;;;-3.03;100.00;100407.97;5015198;28;20034;-74
2022/12/12 00:44:09;;;;;;;0.50;0.50;;;;;;;-3.01;100.00;100406.09;4999596;28;20115;-74
2022/12/12 00:46:34;;;;;;;4.00;3.40;;;;;;;-3.06;100.00;100402.91;5048618;28;20108;-75
2022/12/12 00:49:00;;;;;;;0.50;0.50;;;;;;;-3.15;100.00;100407.81;5032010;28;20069;-74
2022/12/12 00:51:28;;;;;;;0.52;0.52;;;;;;;-3.26;100.00;100407.59;5015798;28;20026;-74
2022/12/12 00:53:54;;;;;;;0.60;0.60;;;;;;;-3.33;100.00;100404.53;5015808;28;20029;-74
2022/12/12 00:56:21;;;;;;;1.15;1.05;;;;;;;-3.36;100.00;100395.97;4999789;28;20056;-74
2022/12/12 00:58:47;;;;;;;2.00;1.90;;;;;;;-3.33;100.00;100409.78;4999798;28;20107;-74
2022/12/12 01:01:16;;;;;;;0.82;0.82;;;;;;;-3.35;100.00;100403.78;5015574;28;20029;-74
2022/12/12 01:03:42;;;;;;;1.00;1.00;;;;;;;-3.36;100.00;100399.47;5048209;28;20038;-74
2022/12/12 01:06:09;;;;;;;0.50;0.50;;;;;;;-3.30;100.00;100400.03;5032014;28;20048;-74
2022/12/12 01:08:35;;;;;;;0.50;0.50;;;;;;;-3.31;100.00;100396.53;4999250;28;20061;-75
2022/12/12 01:11:00;;;;;;;0.50;0.50;;;;;;;-3.35;100.00;100402.94;5015281;28;20029;-76
2022/12/12 01:13:29;;;;;;;0.50;0.50;;;;;;;-3.38;100.00;100400.50;4999202;28;20034;-74
2022/12/12 01:15:55;;;;;;;0.50;0.50;;;;;;;-3.35;100.00;100395.06;5031988;28;20117;-75
2022/12/12 01:18:21;;;;;;;0.50;0.50;;;;;;;-3.35;100.00;100389.78;5048274;28;20064;-75
2022/12/12 01:20:46;;;;;;;1.00;1.00;;;;;;;-3.34;100.00;100380.97;4999459;28;20049;-74
2022/12/12 01:23:12;;;;;;;0.50;0.50;;;;;;;-3.27;100.00;100382.28;4999257;28;20108;-75
2022/12/12 01:25:38;;;;;;;0.80;0.80;;;;;;;-3.22;100.00;100382.81;4999399;28;20124;-74
2022/12/12 01:28:04;;;;;;;1.13;1.13;;;;;;;-3.19;100.00;100377.38;4999297;28;20040;-75
2022/12/12 01:30:31;;;;;;;0.50;0.50;;;;;;;-3.20;100.00;100380.94;4999369;28;20041;-74
2022/12/12 01:32:56;;;;;;;0.50;0.50;;;;;;;-3.18;100.00;100378.22;5015305;28;20040;-74
2022/12/12 01:35:24;;;;;;;1.02;1.02;;;;;;;-3.14;100.00;100367.41;4999356;28;20025;-74
2022/12/12 01:37:49;;;;;;;1.65;1.55;;;;;;;-3.13;100.00;100361.19;5015070;28;20022;-75
2022/12/12 01:40:19;;;;;;;0.90;0.90;;;;;;;-3.19;100.00;100347.59;4999222;28;20045;-74
2022/12/12 01:42:44;;;;;;;0.60;0.60;;;;;;;-3.10;100.00;100358.38;5032345;28;20487;-73
2022/12/12 01:45:48;;;;;;;0.70;0.70;;;;;;;-3.08;100.00;100365.31;5003176;28;20113;-75
2022/12/12 01:48:13;;;;;;;0.50;0.50;;;;;;;-3.07;100.00;100354.69;5019303;28;20088;-74
2022/12/12 01:50:41;;;;;;;2.55;2.45;;;;;;;-3.04;100.00;100351.88;5019038;28;20034;-75
2022/12/12 01:53:06;;;;;;;0.90;0.90;;;;;;;-3.13;100.00;100342.78;5002262;28;20434;-74
2022/12/12 01:55:32;;;;;;;1.23;1.23;;;;;;;-3.10;100.00;100344.38;5002581;28;20068;-75
2022/12/12 01:57:58;;;;;;;0.50;0.50;;;;;;;-3.08;100.00;100354.81;5035290;28;20467;-74
2022/12/12 02:00:23;;;;;;;2.13;2.03;;;;;;;-3.13;100.00;100349.84;5002344;28;20063;-74
2022/12/12 02:02:51;;;;;;;2.85;2.70;;;;;;;-3.13;100.00;100348.03;5002388;28;20041;-74
2022/12/12 02:05:28;;;;;;;0.68;0.68;;;;;;;-3.08;100.00;100346.91;5035068;28;20041;-73
2022/12/12 02:07:56;;;;;;;1.08;1.08;;;;;;;-3.07;100.00;100340.69;5034977;28;20542;-75
2022/12/12 02:10:21;;;;;;;1.45;1.45;;;;;;;-3.08;100.00;100339.03;5002247;28;20033;-74
2022/12/12 02:12:47;;;;;;;2.25;2.15;;;;;;;-3.06;100.00;100347.66;5002095;28;20053;-74
2022/12/12 02:15:13;;;;;;;0.50;0.50;;;;;;;-3.07;100.00;100338.06;5018559;28;20091;-74
2022/12/12 02:18:08;;;;;;;0.73;0.73;;;;;;;-3.06;100.00;100334.50;5018427;28;20102;-75
2022/12/12 02:21:02;;;;;;;0.57;0.57;;;;;;;-3.08;100.00;100339.03;5000262;28;20048;-73
2022/12/12 02:23:44;;;;;;;0.65;0.65;;;;;;;-3.16;100.00;100335.09;5007965;28;20041;-74
2022/12/12 02:26:40;;;;;;;2.10;1.13;;;;;;;-3.16;100.00;100336.88;5034939;28;20459;-74
2022/12/12 02:29:18;;;;;;;0.77;0.77;;;;;;;-3.19;100.00;100329.19;5018491;28;20032;-73
2022/12/12 02:31:47;;;;;;;0.50;0.50;;;;;;;-3.15;100.00;100330.66;5018524;28;20033;-74
2022/12/12 02:34:25;;;;;;;1.15;1.15;;;;;;;-3.14;100.00;100329.75;5001856;28;20040;-74
2022/12/12 02:37:09;;;;;;;0.50;0.50;;;;;;;-3.18;100.00;100334.34;5034484;28;20037;-75
2022/12/12 02:39:59;;;;;;;0.60;0.60;;;;;;;-3.24;100.00;100318.13;5018362;28;20038;-74
2022/12/12 02:42:40;;;;;;;0.50;0.50;;;;;;;-3.17;100.00;100327.31;5018204;28;20195;-74
2022/12/12 02:45:23;;;;;;;0.60;0.60;;;;;;;-3.16;100.00;100332.47;5017969;28;20050;-75
2022/12/12 02:47:57;;;;;;;0.85;0.85;;;;;;;-3.23;100.00;100325.06;5001571;28;20497;-74
2022/12/12 02:50:25;;;;;;;1.00;1.00;;;;;;;-3.23;100.00;100331.16;5017982;28;20048;-74
2022/12/12 02:52:50;;;;;;;0.50;0.50;;;;;;;-3.25;100.00;100321.72;5001673;28;20033;-74
2022/12/12 02:55:17;;;;;;;0.50;0.50;;;;;;;-3.23;100.00;100327.69;5001377;28;20387;-74
2022/12/12 02:57:43;;;;;;;1.13;1.13;;;;;;;-3.30;100.00;100318.53;5034004;28;20029;-75
2022/12/12 03:00:17;;;;;;;1.40;1.38;;;;;;;-3.30;100.00;100329.06;5001867;28;20037;-74
2022/12/12 03:08:41;;;;;;;0.50;0.50;;;;;;;-3.37;100.00;100311.00;5034210;28;20132;-74
2022/12/12 03:11:10;;;;;;;0.57;0.57;;;;;;;-3.36;100.00;100314.47;5034140;28;20033;-74
2022/12/12 03:13:45;;;;;;;0.70;0.70;;;;;;;-3.33;100.00;100303.78;5017134;28;20042;-74
2022/12/12 03:16:31;;;;;;;0.50;0.50;;;;;;;-3.38;100.00;100293.56;5034192;28;20033;-74
2022/12/12 03:19:08;;;;;;;0.50;0.50;;;;;;;-3.34;100.00;100297.66;5017593;28;20040;-74
2022/12/12 03:22:20;;;;;;;0.60;0.60;;;;;;;-3.36;100.00;100299.56;5001417;28;20045;-74
2022/12/12 03:25:09;;;;;;;3.00;1.52;;;;;;;-3.39;100.00;100291.03;5012438;28;20048;-74
2022/12/12 03:27:42;;;;;;;1.83;1.75;;;;;;;-3.38;100.00;100284.84;5001287;28;20041;-75
2022/12/12 03:30:12;;;;;;;0.60;0.60;;;;;;;-3.45;100.00;100288.78;5033635;28;20105;-75
2022/12/12 03:32:41;;;;;;;0.50;0.50;;;;;;;-3.51;100.00;100289.19;5016796;28;20026;-75
2022/12/12 03:35:13;;;;;;;0.50;0.50;;;;;;;-3.57;100.00;100291.28;5017107;28;20456;-73
2022/12/12 03:37:48;;;;;;;0.50;0.50;;;;;;;-3.64;100.00;100283.88;5033641;28;20021;-74
2022/12/12 03:40:27;;;;;;;0.50;0.50;;;;;;;-3.68;100.00;100284.97;5017105;28;20025;-74
2022/12/12 03:42:59;;;;;;;0.50;0.50;;;;;;;-3.73;100.00;100281.81;5017075;28;20129;-75
2022/12/12 03:45:36;;;;;;;0.50;0.50;;;;;;;-3.74;100.00;100272.25;5000796;28;20034;-74
2022/12/12 03:48:07;;;;;;;0.50;0.50;;;;;;;-3.71;100.00;100278.13;5001232;28;20073;-74
2022/12/12 03:51:07;;;;;;;0.50;0.50;;;;;;;-3.70;100.00;100276.38;5000652;28;20069;-74
2022/12/12 03:53:37;;;;;;;0.50;0.50;;;;;;;-3.71;100.00;100270.25;5014995;28;20037;-74
2022/12/12 03:56:12;;;;;;;0.50;0.50;;;;;;;-3.64;100.00;100265.47;5016928;28;20036;-74
2022/12/12 03:58:44;;;;;;;1.02;1.02;;;;;;;-3.62;100.00;100256.56;5033155;28;20405;-74
2022/12/12 04:01:11;;;;;;;0.60;0.60;;;;;;;-3.56;100.00;100256.16;5016975;28;20033;-74
2022/12/12 04:04:02;;;;;;;0.50;0.50;;;;;;;-3.53;100.00;100253.31;5033089;28;20550;-74
2022/12/12 04:06:41;;;;;;;0.50;0.50;;;;;;;-3.49;100.00;100242.59;5031908;28;20471;-74
2022/12/12 04:15:26;;;;;;;0.55;0.55;;;;;;;-3.62;100.00;100240.78;5019033;28;20037;-75
2022/12/12 04:17:57;;;;;;;0.50;0.50;;;;;;;-3.77;100.00;100226.00;5016509;28;20128;-74
2022/12/12 04:23:46;;;;;;;0.50;0.50;;;;;;;-3.75;100.00;100234.63;5019140;28;20033;-75
2022/12/12 04:26:39;;;;;;;0.50;0.50;;;;;;;-3.76;100.00;100232.91;5000034;28;20037;-74
2022/12/12 04:29:26;;;;;;;0.50;0.50;;;;;;;-3.78;100.00;100209.41;5016505;28;20033;-74
2022/12/12 04:32:20;;;;;;;0.50;0.50;;;;;;;-3.72;100.00;100221.28;5016272;28;20048;-74
2022/12/12 04:35:05;;;;;;;0.50;0.50;;;;;;;-3.71;100.00;100222.97;5016252;28;20490;-74
2022/12/12 04:37:35;;;;;;;0.50;0.50;;;;;;;-3.72;100.00;100220.47;5015902;28;20478;-75
2022/12/12 04:40:04;;;;;;;0.52;0.52;;;;;;;-3.77;100.00;100228.63;5048866;28;20099;-75
2022/12/12 04:42:34;;;;;;;0.50;0.50;;;;;;;-3.87;100.00;100219.63;4999410;28;20132;-74
2022/12/12 04:45:05;;;;;;;0.60;0.60;;;;;;;-3.88;100.00;100231.94;5032147;28;20037;-74
2022/12/12 04:47:32;;;;;;;0.50;0.50;;;;;;;-3.95;100.00;100217.47;5016244;28;20130;-74
2022/12/12 04:50:00;;;;;;;0.50;0.50;;;;;;;-4.06;100.00;100206.81;4999958;28;20040;-74
2022/12/12 04:52:29;;;;;;;0.50;0.50;;;;;;;-4.14;100.00;100204.66;4999688;28;20244;-74
2022/12/12 04:55:21;;;;;;;0.50;0.50;;;;;;;-4.14;100.00;100211.72;5032332;28;20498;-75
2022/12/12 04:57:50;;;;;;;0.50;0.50;;;;;;;-4.22;100.00;100201.69;4998431;28;20045;-74
2022/12/12 05:00:16;;;;;;;0.50;0.50;;;;;;;-4.28;100.00;100199.44;5015588;28;20026;-73
2022/12/12 05:02:53;;;;;;;0.50;0.50;;;;;;;-4.35;100.00;100191.09;5032076;28;20367;-74
2022/12/12 05:05:25;;;;;;;0.60;0.60;;;;;;;-4.36;100.00;100193.81;5015785;28;20388;-74
2022/12/12 05:07:59;;;;;;;0.50;0.50;;;;;;;-4.39;100.00;100196.63;5032297;28;20033;-74
2022/12/12 05:10:25;;;;;;;0.50;0.50;;;;;;;-4.39;100.00;100196.63;5032460;28;20123;-74
2022/12/12 05:12:56;;;;;;;0.50;0.50;;;;;;;-4.38;100.00;100193.06;5032013;28;20061;-74
2022/12/12 05:15:23;;;;;;;0.50;0.50;;;;;;;-4.38;100.00;100193.06;5015989;28;20110;-74
2022/12/12 05:18:05;;;;;;;0.70;0.70;;;;;;;-4.35;100.00;100196.34;5033731;28;20029;-75
2022/12/12 05:20:30;;;;;;;0.52;0.52;;;;;;;-4.32;100.00;100197.94;5035942;28;20033;-75
2022/12/12 05:22:56;;;;;;;0.50;0.50;;;;;;;-4.31;100.00;100199.59;5036106;28;20044;-74
2022/12/12 05:25:22;;;;;;;0.50;0.50;;;;;;;-4.30;100.00;100196.06;5019736;28;20026;-74
2022/12/12 05:27:47;;;;;;;0.50;0.50;;;;;;;-4.27;100.00;100186.22;5003107;28;20036;-74
2022/12/12 05:30:13;;;;;;;0.60;0.60;;;;;;;-4.26;100.00;100189.66;5036053;28;20099;-74
2022/12/12 05:32:39;;;;;;;0.50;0.50;;;;;;;-4.22;100.00;100193.81;5019404;28;20034;-74
2022/12/12 05:35:06;;;;;;;0.50;0.50;;;;;;;-4.18;100.00;100187.44;5019400;28;20036;-73
2022/12/12 05:37:32;;;;;;;0.50;0.50;;;;;;;-4.23;100.00;100181.63;5035893;28;20037;-74
2022/12/12 05:39:58;;;;;;;0.60;0.60;;;;;;;-4.15;100.00;100195.13;5003260;28;20364;-74
2022/12/12 05:42:24;;;;;;;0.50;0.50;;;;;;;-4.12;100.00;100187.03;5019378;28;20038;-74
2022/12/12 05:44:50;;;;;;;0.50;0.50;;;;;;;-4.22;100.00;100176.25;5002932;28;20096;-74
2022/12/12 05:47:17;;;;;;;0.50;0.50;;;;;;;-4.12;100.00;100189.66;5002860;28;20099;-74
2022/12/12 05:49:44;;;;;;;0.57;0.57;;;;;;;-4.16;100.00;100182.91;5035696;28;20053;-74
2022/12/12 05:52:10;;;;;;;0.50;0.50;;;;;;;-4.20;100.00;100184.06;5002931;28;20113;-74
2022/12/12 05:54:35;;;;;;;0.60;0.60;;;;;;;-4.34;100.00;100161.31;5019138;28;20109;-75
2022/12/12 05:57:01;;;;;;;0.60;0.60;;;;;;;-4.20;100.00;100179.66;5019037;28;20543;-74
2022/12/12 05:59:28;;;;;;;0.50;0.50;;;;;;;-4.16;100.00;100172.41;5018632;28;20383;-74
2022/12/12 06:01:54;;;;;;;3.10;2.85;;;;;;;-4.23;100.00;100169.34;5019087;28;20040;-73
2022/12/12 06:04:19;;;;;;;0.60;0.60;;;;;;;-4.20;100.00;100176.19;5019103;28;20042;-73
2022/12/12 06:06:45;;;;;;;0.50;0.50;;;;;;;-4.18;100.00;100173.44;5002652;28;20037;-74
2022/12/12 06:09:11;;;;;;;0.50;0.50;;;;;;;-4.20;100.00;100173.56;5018789;28;20029;-75
2022/12/12 06:11:37;;;;;;;1.08;1.08;;;;;;;-4.17;100.00;100175.16;5035067;28;20476;-74
2022/12/12 06:14:02;;;;;;;0.50;0.50;;;;;;;-4.19;100.00;100169.97;5018727;28;20025;-74
2022/12/12 06:16:28;;;;;;;0.93;0.82;;;;;;;-4.15;100.00;100176.75;5002492;28;20025;-74
2022/12/12 06:18:55;;;;;;;0.60;0.60;;;;;;;-4.10;100.00;100172.03;5035295;28;20480;-74
2022/12/12 06:21:21;;;;;;;0.40;0.40;;;;;;;-4.08;100.00;100162.25;5034667;28;20472;-74
2022/12/12 06:23:48;;;;;;;0.50;0.50;;;;;;;-4.05;100.00;100166.47;5002220;28;20037;-75
2022/12/12 06:26:15;;;;;;;0.50;0.50;;;;;;;-4.06;100.00;100167.44;5002257;28;20112;-74
2022/12/12 06:28:41;;;;;;;0.50;0.50;;;;;;;-4.06;100.00;100164.81;5017763;28;20040;-74
2022/12/12 06:31:07;;;;;;;0.50;0.50;;;;;;;-4.07;100.00;100155.25;5035051;28;20025;-74
2022/12/12 06:33:34;;;;;;;0.50;0.50;;;;;;;-4.08;100.00;100148.31;5001695;28;20029;-73
2022/12/12 06:36:22;;;;;;;0.50;0.50;;;;;;;-4.09;100.00;100154.50;5018358;28;20036;-73
2022/12/12 06:38:50;;;;;;;0.50;0.50;;;;;;;-4.15;100.00;100147.00;5034184;28;20033;-74
2022/12/12 06:41:16;;;;;;;0.50;0.50;;;;;;;-4.20;100.00;100145.53;5001642;28;20033;-74
2022/12/12 06:43:42;;;;;;;0.50;0.50;;;;;;;-4.29;100.00;100146.09;5017586;28;20060;-73
2022/12/12 06:46:15;;;;;;;1.10;1.02;;;;;;;-4.35;100.00;100140.38;5001794;28;20065;-74
2022/12/12 06:48:41;;;;;;;0.50;0.50;;;;;;;-4.38;100.00;100141.41;5001862;28;20049;-73
2022/12/12 06:51:09;;;;;;;0.50;0.50;;;;;;;-4.41;100.00;100136.38;5017865;28;20041;-74
2022/12/12 06:53:35;;;;;;;0.50;0.50;;;;;;;-4.43;100.00;100135.63;5017737;28;20038;-74
2022/12/12 06:56:06;;;;;;;0.50;0.50;;;;;;;-4.49;100.00;100134.22;5034197;28;20022;-76
2022/12/12 06:58:32;;;;;;;0.50;0.50;;;;;;;-4.49;100.00;100133.38;5034407;28;20030;-76
2022/12/12 07:00:57;;;;;;;0.50;0.50;;;;;;;-4.52;100.00;100137.03;5018240;28;20383;-74
2022/12/12 07:03:23;;;;;;;0.50;0.50;;;;;;;-4.54;100.00;100133.66;5034442;28;20463;-73
2022/12/12 07:05:49;;;;;;;0.50;0.50;;;;;;;-4.57;100.00;100128.59;5017866;28;20037;-74
2022/12/12 07:08:15;;;;;;;0.50;0.50;;;;;;;-4.55;100.00;100133.75;5001574;28;20471;-74
2022/12/12 07:10:42;;;;;;;0.50;0.50;;;;;;;-4.57;100.00;100122.53;5017349;28;20029;-74
2022/12/12 07:13:09;;;;;;;0.50;0.50;;;;;;;-4.58;100.00;100126.06;5050401;28;20502;-74
2022/12/12 07:15:47;;;;;;;0.50;0.50;;;;;;;-4.59;100.00;100140.13;5001276;28;20107;-74
2022/12/12 07:18:14;;;;;;;0.50;0.50;;;;;;;-4.60;100.00;100134.03;5033959;28;20029;-73
2022/12/12 07:20:41;;;;;;;0.50;0.50;;;;;;;-4.60;100.00;100128.81;5033801;28;20025;-74
2022/12/12 07:23:07;;;;;;;0.60;0.60;;;;;;;-4.64;100.00;100125.50;5033235;28;20400;-74
2022/12/12 07:25:32;;;;;;;0.50;0.50;;;;;;;-4.69;100.00;100124.09;5017204;28;20037;-74
2022/12/12 07:27:58;;;;;;;0.50;0.50;;;;;;;-4.77;100.00;100128.97;5017514;28;20069;-73
2022/12/12 07:30:24;;;;;;;0.50;0.50;;;;;;;-4.75;100.00;100124.50;5016872;28;20399;-73
2022/12/12 07:32:50;;;;;;;0.50;0.50;;;;;;;-4.80;100.00;100130.00;5033288;28;20031;-74
2022/12/12 07:35:16;;;;;;;0.60;0.60;;;;;;;-4.81;100.00;100124.88;5017389;28;20498;-73
2022/12/12 07:37:41;;;;;;;0.50;0.50;;;;;;;-4.97;100.00;100101.38;5000716;28;20033;-74
2022/12/12 07:40:08;;;;;;;0.50;0.50;;;;;;;-4.87;100.00;100126.06;5000716;28;20068;-76
2022/12/12 07:42:33;;;;;;;0.50;0.50;;;;;;;-4.96;100.00;100109.13;5033049;28;20061;-74
2022/12/12 07:44:59;;;;;;;0.50;0.50;;;;;;;-4.84;100.00;100125.03;5001022;28;20444;-74
2022/12/12 07:47:25;;;;;;;1.08;1.02;;;;;;;-4.82;100.00;100120.53;5016763;28;20033;-76
2022/12/12 07:49:50;;;;;;;0.50;0.50;;;;;;;-4.80;100.00;100124.75;5001117;28;20071;-73
2022/12/12 07:52:16;;;;;;;0.50;0.50;;;;;;;-4.80;100.00;100129.16;5033213;28;20475;-74
2022/12/12 07:54:42;;;;;;;0.50;0.50;;;;;;;-4.75;100.00;100129.72;5000489;28;20038;-75
2022/12/12 07:57:08;;;;;;;0.50;0.50;;;;;;;-4.72;100.00;100130.38;5049778;28;20037;-74
2022/12/12 07:59:34;;;;;;;0.50;0.50;;;;;;;-4.72;100.00;100119.88;5016498;28;20037;-73
2022/12/12 08:01:59;;;;;;;0.50;0.50;;;;;;;-4.69;100.00;100116.25;5016513;28;20361;-73
2022/12/12 08:04:25;;;;;;;0.60;0.60;;;;;;;-4.72;100.00;100111.19;5049876;28;20175;-74
2022/12/12 08:06:51;;;;;;;0.52;0.52;;;;;;;-4.79;100.00;100113.34;5016713;28;20360;-75
2022/12/12 08:09:16;;;;;;;0.50;0.50;;;;;;;-4.88;100.00;100106.88;5033054;28;20060;-75
2022/12/12 08:11:42;;;;;;;0.50;0.50;;;;;;;-4.93;100.00;100118.56;5000114;28;20472;-74
2022/12/12 08:14:08;;;;;;;0.50;0.50;;;;;;;-5.04;100.00;100108.75;5032811;28;20107;-74
2022/12/12 08:16:34;;;;;;;0.50;0.50;;;;;;;-5.07;100.00;100111.56;5016476;28;20021;-74
2022/12/12 08:18:59;;;;;;;0.50;0.50;;;;;;;-5.16;100.00;100107.72;5032747;28;20072;-75
2022/12/12 08:21:26;;;;;;;0.50;0.50;;;;;;;-5.37;100.00;100095.84;5000180;28;20088;-75
2022/12/12 08:23:59;;;;;;;0.57;0.57;;;;;;;-5.38;100.00;100105.50;5032287;28;20108;-74
2022/12/12 08:26:25;;;;;;;;;;;;;;;-5.35;100.00;100110.56;5016284;28;20041;-74
2022/12/12 08:28:52;;;;;;;0.60;0.60;;;;;;;-5.37;100.00;100114.19;5049073;28;19915;-74
2022/12/12 08:31:20;;;;;;;0.50;0.50;;;;;;;-5.45;100.00;100112.06;5016009;28;20071;-74
2022/12/12 08:33:46;;;;;;;0.55;0.55;;;;;;;-5.53;100.00;100106.38;5032180;28;20025;-74
2022/12/12 08:36:17;;;;;;;0.50;0.50;;;;;;;-5.57;100.00;100112.75;5032444;28;20395;-73
2022/12/12 08:38:43;;;;;;;0.60;0.60;;;;;;;-5.66;100.00;100113.28;4999643;28;20071;-73
2022/12/12 08:41:10;;;;;;;0.55;0.55;;;;;;;-5.78;100.00;100114.84;4999666;28;20144;-75
2022/12/12 08:43:40;;;;;;;1.23;1.20;;;;;;;-5.91;100.00;100122.53;5015887;28;20065;-76
2022/12/12 08:46:07;;;;;;;0.60;0.60;;;;;;;-5.98;100.00;100121.22;4999885;28;20025;-75
2022/12/12 08:48:33;;;;;;;0.60;0.60;;;;;;;-6.04;100.00;100118.97;5031798;28;20033;-75
2022/12/12 08:50:59;;;;;;;0.60;0.60;;;;;;;-6.04;100.00;100113.72;5032490;28;20132;-75
2022/12/12 08:53:25;;;;;;;0.50;0.50;;;;;;;-6.04;100.00;100124.19;4998722;28;20425;-75
2022/12/12 08:55:51;;;;;;;0.60;0.60;;;;;;;-6.11;100.00;100126.31;5032216;28;20109;-75
2022/12/12 08:58:17;;;;;;;0.50;0.50;;;;;;;-6.11;100.00;100125.44;4999453;28;20152;-76
2022/12/12 09:00:42;;;;;;;0.50;0.50;;;;;;;-6.16;100.00;100132.75;4999602;28;20479;-74
2022/12/12 09:03:08;;;;;;;0.50;0.50;;;;;;;-6.26;100.00;100128.00;4999646;28;20431;-77
2022/12/12 09:05:34;;;;;;;0.50;0.50;;;;;;;-6.28;100.00;100114.16;5015360;28;20503;-78
2022/12/12 09:08:00;;;;;;;0.50;0.50;;;;;;;-6.46;100.00;100107.31;4999604;28;20038;-78
2022/12/12 09:10:27;;;;;;;0.50;0.50;;;;;;;-6.50;100.00;100129.34;5032359;28;20549;-78
2022/12/12 09:12:54;;;;;;;0.50;0.50;;;;;;;-6.61;100.00;100123.81;5031681;28;20471;-78
2022/12/12 09:15:20;;;;;;;0.50;0.50;;;;;;;-6.75;100.00;100125.41;5032231;28;20034;-78
2022/12/12 09:17:46;;;;;;;0.52;0.52;;;;;;;-6.82;100.00;100116.22;4999496;28;20068;-78
2022/12/12 09:20:11;;;;;;;0.50;0.50;;;;;;;-6.87;100.00;100110.38;4999506;28;20069;-78
2022/12/12 09:22:37;;;;;;;0.50;0.50;;;;;;;-6.88;100.00;100116.53;5032265;28;20476;-78
2022/12/12 09:25:04;;;;;;;0.50;0.50;;;;;;;-6.86;100.00;100119.91;4999390;28;20482;-79
2022/12/12 09:27:30;;;;;;;0.50;0.50;;;;;;;-6.82;100.00;100126.69;5015442;28;20380;-78
2022/12/12 09:29:55;;;;;;;0.50;0.50;;;;;;;-6.76;100.00;100121.13;5015340;28;20021;-78
2022/12/12 09:32:23;;;;;;;0.50;0.50;;;;;;;-6.71;100.00;100106.03;5015598;28;20033;-77
2022/12/12 09:34:49;;;;;;;0.50;0.50;;;;;;;-6.63;100.00;100109.06;5015938;28;20033;-78
2022/12/12 09:37:15;;;;;;;0.60;0.60;;;;;;;-6.45;100.00;100112.47;4999407;28;20160;-78
2022/12/12 09:39:40;;;;;;;0.52;0.52;;;;;;;-6.31;100.00;100103.88;5015560;28;20037;-78
2022/12/12 09:42:22;;;;;;;0.50;0.50;;;;;;;-6.24;100.00;100113.06;5015419;28;20044;-78
2022/12/12 09:44:49;;;;;;;0.55;0.55;;;;;;;-6.10;100.00;100116.69;4999333;28;20490;-78
2022/12/12 09:47:19;;;;;;;0.60;0.60;;;;;;;-5.94;100.00;100122.75;5031861;28;20026;-77
2022/12/12 09:49:53;;;;;;;0.60;0.60;;;;;;;-5.19;100.00;100109.66;5032170;28;20037;-78
2022/12/12 09:52:29;;;;;;;0.60;0.60;;;;;;;-5.02;100.00;100116.53;5048340;28;20490;-77
2022/12/12 09:54:54;;;;;;;0.70;0.70;;;;;;;-4.40;100.00;100122.31;4999331;28;20095;-77
2022/12/12 09:57:30;;;;;;;0.50;0.50;;;;;;;-4.11;100.00;100120.47;5031831;28;20497;-77
2022/12/12 10:00:08;;;;;;;0.60;0.60;;;;;;;-4.38;100.00;100114.34;5015370;28;20041;-77
2022/12/12 10:02:52;;;;;;;0.60;0.60;;;;;;;-4.16;100.00;100125.16;5031911;28;20082;-77
2022/12/12 10:05:21;;;;;;;0.60;0.60;;;;;;;-3.97;100.00;100124.81;5034989;28;20384;-78
2022/12/12 10:07:47;;;;;;;0.70;0.70;;;;;;;-3.44;100.00;100123.13;5018916;28;20467;-77
2022/12/12 10:10:34;;;;;;;0.77;0.77;;;;;;;-2.42;100.00;100124.91;5018845;28;20041;-77
2022/12/12 10:13:02;;;;;;;0.80;0.80;;;;;;;-0.84;100.00;100112.41;5018442;28;20480;-78
2022/12/12 10:15:37;;;;;;;0.80;0.80;;;;;;;0.33;92.91;100119.81;5051910;28;20045;-77
2022/12/12 10:18:06;;;;;;;0.80;0.80;;;;;;;0.82;88.44;100113.94;5018734;28;20056;-78
2022/12/12 10:20:37;;;;;;;0.80;0.80;;;;;;;1.15;84.71;100125.28;5018559;28;20022;-78
2022/12/12 10:23:21;;;;;;;0.88;0.88;;;;;;;1.29;83.26;100124.09;5019076;28;20042;-78
2022/12/12 10:26:04;;;;;;;0.80;0.80;;;;;;;1.38;82.73;100117.19;5018707;28;20060;-78
2022/12/12 10:28:30;;;;;;;0.70;0.70;;;;;;;0.92;84.09;100116.63;5035115;28;20116;-78
2022/12/12 10:31:27;;;;;;;0.70;0.70;;;;;;;0.50;87.06;100121.88;5002078;28;20274;-78
2022/12/12 10:34:11;;;;;;;0.70;0.70;;;;;;;0.70;86.84;100111.47;5017898;28;20116;-76
2022/12/12 10:37:02;;;;;;;0.70;0.70;;;;;;;0.10;87.61;100100.53;5018409;28;20201;-76
2022/12/12 10:39:43;;;;;;;0.70;0.70;;;;;;;0.15;87.62;100112.41;5002158;28;20198;-79
2022/12/12 10:42:41;;;;;;;0.60;0.60;;;;;;;0.41;86.35;100107.63;5018078;28;20464;-78
2022/12/12 10:45:33;;;;;;;0.70;0.70;;;;;;;-0.14;89.69;100109.47;5034739;28;20056;-78
2022/12/12 10:47:59;;;;;;;0.70;0.70;;;;;;;-0.02;89.86;100108.50;5018187;28;20041;-78
2022/12/12 10:50:42;;;;;;;0.60;0.60;;;;;;;-0.59;93.23;100111.31;5033997;28;20479;-78
2022/12/12 10:53:09;;;;;;;0.70;0.70;;;;;;;-0.76;94.39;100094.16;5034288;28;20033;-77
2022/12/12 10:55:55;;;;;;;0.60;0.60;;;;;;;-0.48;95.40;100101.63;5017736;28;20057;-77
2022/12/12 10:58:25;;;;;;;0.60;0.60;;;;;;;-0.49;95.10;100096.44;5001728;28;20112;-78
2022/12/12 11:00:59;;;;;;;0.60;0.60;;;;;;;-0.70;97.53;100093.69;5017655;28;20490;-77
2022/12/12 11:03:28;;;;;;;0.70;0.70;;;;;;;-0.42;95.79;100096.78;5001657;28;20041;-77
2022/12/12 11:05:55;;;;;;;0.60;0.60;;;;;;;-0.26;95.78;100098.09;5034165;28;20033;-77
2022/12/12 11:08:23;;;;;;;0.60;0.60;;;;;;;0.24;95.05;100097.63;5001635;28;20041;-77
2022/12/12 11:11:07;;;;;;;0.70;0.70;;;;;;;0.50;91.10;100084.84;5035230;28;20025;-77
2022/12/12 11:13:53;;;;;;;0.70;0.70;;;;;;;0.10;92.87;100080.22;5033441;28;20057;-77
2022/12/12 11:16:24;;;;;;;0.68;0.68;;;;;;;0.25;94.04;100085.22;5016782;28;20045;-78
2022/12/12 11:19:05;;;;;;;0.70;0.70;;;;;;;0.74;92.27;100076.69;5017166;28;20470;-78
2022/12/12 11:21:33;;;;;;;0.60;0.60;;;;;;;0.26;93.56;100077.16;5034019;28;20487;-77
2022/12/12 11:23:59;;;;;;;0.70;0.70;;;;;;;-0.49;98.10;100075.31;5000963;28;20108;-77
2022/12/12 11:26:27;;;;;;;0.60;0.60;;;;;;;-0.26;98.08;100068.19;5000605;28;20064;-78
2022/12/12 11:29:04;;;;;;;0.60;0.60;;;;;;;-0.80;100.00;100071.59;5033810;28;20029;-78
2022/12/12 11:31:31;;;;;;;0.60;0.60;;;;;;;-0.76;100.00;100065.97;5014039;28;20041;-77
2022/12/12 11:34:00;;;;;;;0.60;0.60;;;;;;;-0.99;100.00;100061.63;5000895;28;20041;-78
2022/12/12 11:36:30;;;;;;;0.60;0.60;;;;;;;-0.07;100.00;100057.81;5033745;28;20079;-79
2022/12/12 11:38:58;;;;;;;0.60;0.60;;;;;;;0.20;99.19;100062.63;5033345;28;20037;-79
2022/12/12 11:41:24;;;;;;;0.60;0.60;;;;;;;0.04;100.00;100056.09;5034231;28;20052;-77
2022/12/12 11:43:52;;;;;;;0.60;0.60;;;;;;;-0.42;100.00;100049.25;5016510;28;20356;-78
2022/12/12 11:46:20;;;;;;;0.60;0.60;;;;;;;-0.84;100.00;100049.91;5000686;28;20037;-78
2022/12/12 11:48:45;;;;;;;0.60;0.60;;;;;;;-0.15;100.00;100059.41;5032585;28;20033;-78